createdAt,value
2023-11-07T00:04:02.492Z,99263.81
2023-11-07T00:09:15.071Z,99265.39
2023-11-07T00:15:01.552Z,99266.46
2023-11-07T00:20:18.732Z,99271.69
2023-11-07T00:25:22.354Z,99274.34
2023-11-07T00:30:26.016Z,99279.97
2023-11-07T00:35:29.618Z,99287.55
2023-11-07T00:40:41.306Z,99289.27
2023-11-07T00:46:02.646Z,99285.50
2023-11-07T00:51:09.677Z,99288.05
2023-11-07T00:56:17.910Z,99294.64
2023-11-07T01:01:34.798Z,99292.52
2023-11-07T01:06:47.830Z,99303.31
2023-11-07T01:11:52.250Z,99298.08
2023-11-07T01:16:55.999Z,99299.90
2023-11-07T01:22:05.174Z,99308.42
2023-11-07T01:27:09.048Z,99315.30
2023-11-07T01:32:22.216Z,99311.51
2023-11-07T01:37:46.163Z,99314.66
2023-11-07T01:42:50.035Z,99314.45
2023-11-07T01:47:57.173Z,99314.18
2023-11-07T01:53:02.607Z,99313.82
2023-11-07T01:58:11.134Z,99305.34
2023-11-07T02:03:35.300Z,99302.92
2023-11-07T02:08:39.107Z,99302.61
2023-11-07T02:13:51.680Z,99306.48
2023-11-07T02:18:55.336Z,99300.31
2023-11-07T02:24:08.122Z,99305.95
2023-11-07T02:29:11.620Z,99304.75
2023-11-07T02:34:15.433Z,99307.34
2023-11-07T02:39:19.307Z,99319.09
2023-11-07T02:44:24.982Z,99317.02
2023-11-07T02:49:28.958Z,99315.25
2023-11-07T02:54:32.623Z,99312.70
2023-11-07T02:59:47.854Z,99318.52
2023-11-07T03:04:56.122Z,99319.77
2023-11-07T03:09:59.864Z,99324.88
2023-11-07T03:15:03.892Z,99324.81
2023-11-07T03:20:11.526Z,99324.89
2023-11-07T03:25:15.225Z,99331.17
2023-11-07T03:30:19.266Z,99330.20
2023-11-07T03:35:28.669Z,99333.85
2023-11-07T03:40:32.844Z,99339.86
2023-11-07T03:45:45.478Z,99341.11
2023-11-07T03:50:55.004Z,99348.27
2023-11-07T03:55:59.636Z,99349.33
2023-11-07T04:01:04.421Z,99348.38
2023-11-07T04:06:28.459Z,99346.09
2023-11-07T04:11:52.573Z,99350.66
2023-11-07T04:17:06.113Z,99349.45
2023-11-07T04:22:17.266Z,99351.92
2023-11-07T04:27:20.890Z,99346.80
2023-11-07T04:33:07.562Z,99348.63
2023-11-07T04:38:25.779Z,99356.80
2023-11-07T04:43:56.743Z,99360.02
2023-11-07T04:49:10.997Z,99364.84
2023-11-07T04:54:17.597Z,99368.61
2023-11-07T04:59:21.317Z,99367.31
2023-11-07T05:04:24.954Z,99369.52
2023-11-07T05:09:37.886Z,99378.33
2023-11-07T05:14:41.642Z,99378.30
2023-11-07T05:19:45.634Z,99380.27
2023-11-07T05:24:49.155Z,99384.84
2023-11-07T05:29:56.133Z,99389.70
2023-11-07T05:34:59.675Z,99386.56
2023-11-07T05:40:06.325Z,99381.64
2023-11-07T05:45:11.977Z,99388.84
2023-11-07T05:50:16.363Z,99389.45
2023-11-07T05:55:20.520Z,99396.39
2023-11-07T06:00:24.359Z,99403.23
2023-11-07T06:05:35.693Z,99412.39
2023-11-07T06:10:42.304Z,99416.33
2023-11-07T06:15:51.335Z,99422.95
2023-11-07T06:21:15.368Z,99429.08
2023-11-07T06:26:22.859Z,99433.64
2023-11-07T06:31:28.381Z,99437.35
2023-11-07T06:36:47.117Z,99438.87
2023-11-07T06:41:52.673Z,99445.91
2023-11-07T06:46:57.222Z,99448.72
2023-11-07T06:52:01.323Z,99451.14
2023-11-07T06:57:13.997Z,99449.41
2023-11-07T07:02:29.158Z,99453.05
2023-11-07T07:07:35.830Z,99452.45
2023-11-07T07:12:40.475Z,99457.69
2023-11-07T07:17:44.120Z,99458.91
2023-11-07T07:22:48.418Z,99459.83
2023-11-07T07:27:56.431Z,99464.11
2023-11-07T07:33:01.598Z,99469.37
2023-11-07T07:38:05.432Z,99476.23
2023-11-07T07:43:12.564Z,99480.98
2023-11-07T07:48:16.292Z,99487.80
2023-11-07T07:53:22.950Z,99492.45
2023-11-07T07:58:26.644Z,99498.45
2023-11-07T08:03:33.977Z,99506.31
2023-11-07T08:09:04.113Z,99517.05
2023-11-07T08:14:17.138Z,99521.11
2023-11-07T08:19:38.186Z,99518.52
2023-11-07T08:24:53.686Z,99516.17
2023-11-07T08:30:00.817Z,99531.35
2023-11-07T08:35:09.092Z,99540.27
2023-11-07T08:40:26.468Z,99547.64
2023-11-07T08:45:38.373Z,99554.07
2023-11-07T08:50:47.178Z,99557.19
2023-11-07T08:55:51.959Z,99558.59
2023-11-07T09:00:58.657Z,99566.52
2023-11-07T09:06:06.714Z,99568.81
2023-11-07T09:11:18.382Z,99569.30
2023-11-07T09:16:26.561Z,99572.05
2023-11-07T09:21:30.433Z,99575.37
2023-11-07T09:26:36.406Z,99578.58
2023-11-07T09:31:46.677Z,99585.42
2023-11-07T09:36:57.572Z,99590.77
2023-11-07T09:42:09.968Z,99596.19
2023-11-07T09:47:17.918Z,99597.39
2023-11-07T09:52:28.871Z,99603.69
2023-11-07T09:57:43.462Z,99605.04
2023-11-07T10:02:47.285Z,99608.20
2023-11-07T10:07:51.214Z,99607.05
2023-11-07T10:13:08.574Z,99609.30
2023-11-07T10:18:20.744Z,99609.08
2023-11-07T10:23:33.847Z,99610.40
2023-11-07T10:28:46.431Z,99612.33
2023-11-07T10:33:59.378Z,99612.59
2023-11-07T10:39:03.798Z,99615.27
2023-11-07T10:44:17.288Z,99609.17
2023-11-07T10:49:23.214Z,99607.30
2023-11-07T10:54:44.673Z,99606.60
2023-11-07T11:00:19.726Z,99602.09
2023-11-07T11:05:45.318Z,99603.23
2023-11-07T11:10:53.944Z,99605.86
2023-11-07T11:16:01.852Z,99608.66
2023-11-07T11:21:18.197Z,99608.42
2023-11-07T11:26:55.988Z,99616.98
2023-11-07T11:32:29.552Z,99617.02
2023-11-07T11:38:13.538Z,99616.63
2023-11-07T11:43:19.172Z,99616.80
2023-11-07T11:48:52.495Z,99616.95
2023-11-07T11:54:01.104Z,99613.61
2023-11-07T11:59:12.547Z,99619.59
2023-11-07T12:04:42.228Z,99619.55
2023-11-07T12:09:51.604Z,99628.45
2023-11-07T12:14:55.848Z,99634.67
2023-11-07T12:20:08.651Z,99636.01
2023-11-07T12:25:21.666Z,99641.84
2023-11-07T12:30:26.276Z,99634.39
2023-11-07T12:35:32.525Z,99627.52
2023-11-07T12:40:38.185Z,99614.73
2023-11-07T12:45:47.854Z,99612.65
2023-11-07T12:50:51.922Z,99607.98
2023-11-07T12:55:59.206Z,99605.22
2023-11-07T13:01:09.303Z,99604.55
2023-11-07T13:06:20.791Z,99606.41
2023-11-07T13:11:28.048Z,99599.98
2023-11-07T13:16:31.593Z,99596.21
2023-11-07T13:21:38.052Z,99600.23
2023-11-07T13:26:42.083Z,99602.44
2023-11-07T13:31:49.030Z,99614.11
2023-11-07T13:37:01.331Z,99616.52
2023-11-07T13:42:16.512Z,99617.78
2023-11-07T13:47:25.339Z,99620.91
2023-11-07T13:52:28.957Z,99617.85
2023-11-07T13:57:32.597Z,99622.44
2023-11-07T14:02:36.415Z,99622.46
2023-11-07T14:07:40.735Z,99625.25
2023-11-07T14:12:45.595Z,99631.60
2023-11-07T14:17:49.156Z,99635.02
2023-11-07T14:22:54.094Z,99642.59
2023-11-07T14:28:00.435Z,99644.96
2023-11-07T14:33:05.443Z,99639.58
2023-11-07T14:38:10.706Z,99648.38
2023-11-07T14:43:17.442Z,99648.76
2023-11-07T14:48:23.561Z,99658.74
2023-11-07T14:53:28.445Z,99659.34
2023-11-07T14:58:31.899Z,99656.38
2023-11-07T15:03:35.683Z,99655.79
2023-11-07T15:08:39.802Z,99654.49
2023-11-07T15:13:49.500Z,99656.33
2023-11-07T15:18:54.205Z,99658.07
2023-11-07T15:23:58.069Z,99662.26
2023-11-07T15:29:01.680Z,99664.14
2023-11-07T15:34:06.487Z,99668.08
2023-11-07T15:39:16.379Z,99670.08
2023-11-07T15:44:21.450Z,99668.02
2023-11-07T15:49:25.385Z,99670.89
2023-11-07T15:54:37.908Z,99673.77
2023-11-07T15:59:41.831Z,99672.64
2023-11-07T16:04:50.777Z,99668.66
2023-11-07T16:09:54.638Z,99672.36
2023-11-07T16:14:58.467Z,99674.58
2023-11-07T16:20:06.439Z,99676.73
2023-11-07T16:25:10.371Z,99679.41
2023-11-07T16:30:16.971Z,99672.15
2023-11-07T16:35:20.612Z,99675.23
2023-11-07T16:40:24.711Z,99670.40
2023-11-07T16:45:28.569Z,99666.84
2023-11-07T16:50:32.468Z,99672.64
2023-11-07T16:55:36.281Z,99671.02
2023-11-07T17:00:39.899Z,99672.23
2023-11-07T17:05:52.471Z,99670.77
2023-11-07T17:10:55.990Z,99673.88
2023-11-07T17:16:00.604Z,99677.70
2023-11-07T17:21:04.475Z,99677.59
2023-11-07T17:26:08.295Z,99674.80
2023-11-07T17:31:13.905Z,99668.41
2023-11-07T17:36:35.790Z,99666.88
2023-11-07T17:41:39.677Z,99670.61
2023-11-07T17:46:43.746Z,99674.96
2023-11-07T17:51:50.059Z,99675.48
2023-11-07T17:56:54.122Z,99683.64
2023-11-07T18:02:08.741Z,99682.17
2023-11-07T18:07:14.370Z,99683.85
2023-11-07T18:12:28.412Z,99680.39
2023-11-07T18:17:52.491Z,99677.17
2023-11-07T18:22:57.282Z,99678.95
2023-11-07T18:28:02.387Z,99678.23
2023-11-07T18:33:06.324Z,99672.27
2023-11-07T18:38:10.098Z,99675.51
2023-11-07T18:43:13.758Z,99672.23
2023-11-07T18:48:17.824Z,99669.05
2023-11-07T18:53:30.879Z,99670.46
2023-11-07T18:58:41.238Z,99671.96
2023-11-07T19:03:55.301Z,99676.15
2023-11-07T19:08:59.382Z,99671.44
2023-11-07T19:14:11.917Z,99672.73
2023-11-07T19:19:15.535Z,99667.21
2023-11-07T19:24:29.388Z,99665.75
2023-11-07T19:29:32.989Z,99661.81
2023-11-07T19:34:39.885Z,99669.55
2023-11-07T19:39:44.544Z,99668.54
2023-11-07T19:44:51.936Z,99664.16
2023-11-07T19:49:55.761Z,99670.83
2023-11-07T19:54:59.448Z,99669.52
2023-11-07T20:00:03.620Z,99664.38
2023-11-07T20:05:27.841Z,99662.23
2023-11-07T20:10:32.776Z,99662.92
2023-11-07T20:15:36.310Z,99661.20
2023-11-07T20:20:41.541Z,99663.45
2023-11-07T20:25:45.163Z,99661.02
2023-11-07T20:30:48.982Z,99664.41
2023-11-07T20:35:52.435Z,99659.40
2023-11-07T20:40:57.145Z,99662.98
2023-11-07T20:46:01.915Z,99659.45
2023-11-07T20:51:07.062Z,99654.56
2023-11-07T20:56:12.435Z,99651.54
2023-11-07T21:01:17.754Z,99652.11
2023-11-07T21:06:21.372Z,99653.08
2023-11-07T21:11:25.001Z,99651.41
2023-11-07T21:16:28.634Z,99648.81
2023-11-07T21:21:32.559Z,99648.21
2023-11-07T21:26:39.337Z,99648.16
2023-11-07T21:31:43.268Z,99649.33
2023-11-07T21:36:46.930Z,99646.83
2023-11-07T21:41:50.611Z,99647.29
2023-11-07T21:46:55.974Z,99646.08
2023-11-07T21:51:59.792Z,99650.98
2023-11-07T21:57:06.099Z,99654.02
2023-11-07T22:02:10.152Z,99658.90
2023-11-07T22:07:45.464Z,99659.04
2023-11-07T22:12:56.749Z,99659.86
2023-11-07T22:18:05.839Z,99660.23
2023-11-07T22:23:19.261Z,99663.74
2023-11-07T22:28:43.484Z,99664.23
2023-11-07T22:33:53.727Z,99664.67
2023-11-07T22:39:02.985Z,99668.87
2023-11-07T22:44:28.828Z,99661.43
2023-11-07T22:49:51.806Z,99661.81
2023-11-07T22:55:04.229Z,99657.02
2023-11-07T23:00:12.228Z,99652.61
2023-11-07T23:05:21.351Z,99649.25
2023-11-07T23:10:25.012Z,99644.27
2023-11-07T23:15:28.796Z,99636.94
2023-11-07T23:20:41.994Z,99627.94
2023-11-07T23:25:45.599Z,99627.25
2023-11-07T23:30:50.418Z,99622.60
2023-11-07T23:36:17.252Z,99613.06
2023-11-07T23:41:33.314Z,99610.84
2023-11-07T23:46:45.950Z,99607.49
2023-11-07T23:51:55.098Z,99606.16
2023-11-07T23:57:04.963Z,99604.37
